Time;durP1;ratioP1;P1;durP2;ratioP2;P2;SDS_P1;SDS_P2;PMS_P1;PMS_P2;Temp;Humidity;BMP_temperature;BMP_pressure;BME280_temperature;BME280_humidity;BME280_pressure;Samples;Min_cycle;Max_cycle;Signal;HPM_P1;HPM_P2
2022/06/01 00:01:36;;;;;;;10.65;9.65;;;11.90;99.90;;;;;;4910192;29;20075;-75
2022/06/01 00:04:03;;;;;;;10.82;9.10;;;11.90;99.90;;;;;;4903935;29;20112;-75
2022/06/01 00:06:28;;;;;;;9.95;8.95;;;12.00;99.90;;;;;;4887825;29;20167;-77
2022/06/01 00:08:54;;;;;;;8.43;7.63;;;12.00;99.90;;;;;;4910550;29;20832;-76
2022/06/01 00:11:20;;;;;;;8.02;7.22;;;12.00;99.90;;;;;;4919355;29;20051;-76
2022/06/01 00:13:46;;;;;;;8.32;7.18;;;12.00;99.90;;;;;;4904188;29;20059;-75
2022/06/01 00:16:11;;;;;;;7.30;6.60;;;12.00;99.90;;;;;;4910762;29;20672;-75
2022/06/01 00:18:38;;;;;;;7.72;7.03;;;12.00;99.90;;;;;;4886173;29;20059;-76
2022/06/01 00:21:05;;;;;;;7.35;6.35;;;12.00;99.90;;;;;;4903434;29;20052;-75
2022/06/01 00:23:30;;;;;;;7.10;6.40;;;12.00;99.90;;;;;;4888677;29;20418;-76
2022/06/01 00:25:58;;;;;;;6.38;5.78;;;12.00;99.90;;;;;;4872121;29;20049;-76
2022/06/01 00:28:24;;;;;;;6.90;6.13;;;12.00;99.90;;;;;;4918832;29;20113;-76
2022/06/01 00:30:50;;;;;;;6.80;6.20;;;12.00;99.90;;;;;;4910248;29;20055;-76
2022/06/01 00:33:16;;;;;;;6.65;5.95;;;11.90;99.90;;;;;;4871214;29;20052;-76
2022/06/01 00:35:42;;;;;;;7.13;6.43;;;11.90;99.90;;;;;;4902075;29;20063;-76
2022/06/01 00:38:09;;;;;;;7.72;6.50;;;11.90;99.90;;;;;;4910124;29;20540;-76
2022/06/01 00:40:35;;;;;;;7.13;6.30;;;11.90;99.90;;;;;;4909144;29;20049;-76
2022/06/01 00:43:15;;;;;;;6.80;6.13;;;11.80;99.90;;;;;;4903077;29;20394;-76
2022/06/01 00:45:41;;;;;;;7.82;6.93;;;11.80;99.90;;;;;;4917279;29;20644;-75
2022/06/01 00:48:07;;;;;;;7.70;6.63;;;11.70;99.90;;;;;;4903762;29;20066;-77
2022/06/01 00:50:37;;;;;;;8.30;7.50;;;11.80;99.90;;;;;;4902667;29;20111;-77
2022/06/01 00:53:10;;;;;;;8.80;7.13;;;11.70;99.90;;;;;;4902850;29;20059;-76
2022/06/01 00:55:54;;;;;;;8.57;7.75;;;11.70;99.90;;;;;;4886326;29;20183;-76
2022/06/01 00:58:24;;;;;;;8.02;7.20;;;11.60;99.90;;;;;;4903913;29;20051;-76
2022/06/01 01:00:52;;;;;;;8.57;7.65;;;11.50;99.90;;;;;;4902970;29;20048;-76
2022/06/01 01:03:21;;;;;;;9.50;8.50;;;11.40;99.90;;;;;;4910017;29;20052;-76
2022/06/01 01:05:51;;;;;;;10.25;9.18;;;11.40;99.90;;;;;;4894631;29;20171;-76
2022/06/01 01:08:17;;;;;;;8.45;7.72;;;11.30;99.90;;;;;;4909133;29;20041;-76
2022/06/01 01:10:43;;;;;;;9.65;8.75;;;11.30;99.90;;;;;;4918828;29;20070;-76
2022/06/01 01:13:14;;;;;;;10.02;9.02;;;11.30;99.90;;;;;;4903798;29;20072;-76
2022/06/01 01:15:52;;;;;;;9.23;8.32;;;11.30;99.90;;;;;;4892225;29;20066;-76
2022/06/01 01:18:22;;;;;;;10.95;9.90;;;11.30;99.90;;;;;;4902756;29;20060;-77
2022/06/01 01:21:06;;;;;;;10.73;9.63;;;11.20;99.90;;;;;;4903478;29;20076;-76
2022/06/01 01:23:40;;;;;;;11.13;9.98;;;11.20;99.90;;;;;;4909239;29;20147;-76
2022/06/01 01:26:07;;;;;;;9.43;8.52;;;11.20;99.90;;;;;;4908984;29;20490;-76
2022/06/01 01:28:33;;;;;;;10.00;9.10;;;11.20;99.90;;;;;;4902140;29;20060;-76
2022/06/01 01:31:07;;;;;;;9.13;8.23;;;11.20;99.90;;;;;;4886843;29;20083;-76
2022/06/01 01:33:33;;;;;;;10.65;9.63;;;11.20;99.90;;;;;;4909883;29;20064;-77
2022/06/01 01:36:04;;;;;;;10.00;9.00;;;11.10;99.90;;;;;;4918626;29;20059;-77
2022/06/01 01:38:42;;;;;;;10.55;9.48;;;11.10;99.90;;;;;;4887883;29;20406;-76
2022/06/01 01:41:13;;;;;;;10.10;9.20;;;11.10;99.90;;;;;;4909838;29;20048;-76
2022/06/01 01:43:59;;;;;;;10.98;9.88;;;11.00;99.90;;;;;;4909414;29;20048;-76
2022/06/01 01:46:27;;;;;;;9.70;8.80;;;11.00;99.90;;;;;;4916020;29;20542;-77
2022/06/01 01:48:53;;;;;;;10.20;9.20;;;11.00;99.90;;;;;;4900925;29;20056;-75
2022/06/01 01:51:23;;;;;;;10.77;9.65;;;11.00;99.90;;;;;;4916908;29;20068;-75
2022/06/01 01:53:50;;;;;;;9.68;8.77;;;10.90;99.90;;;;;;4908073;29;20124;-75
2022/06/01 01:56:35;;;;;;;10.07;9.15;;;10.90;99.90;;;;;;4901870;29;20062;-75
2022/06/01 01:59:13;;;;;;;10.25;9.15;;;10.90;99.90;;;;;;4920690;29;20060;-76
2022/06/01 02:01:53;;;;;;;9.80;8.90;;;10.90;99.90;;;;;;4905457;29;20048;-75
2022/06/01 02:08:00;;;;;;;9.85;8.85;;;10.80;99.90;;;;;;4912482;29;20423;-75
2022/06/01 02:13:15;;;;;;;9.65;7.90;;;10.80;99.90;;;;;;4921516;29;20163;-74
2022/06/01 02:15:43;;;;;;;8.70;7.90;;;10.80;99.90;;;;;;4903272;29;20085;-74
2022/06/01 02:18:18;;;;;;;8.43;7.63;;;10.90;99.90;;;;;;4912800;29;20066;-74
2022/06/01 02:20:56;;;;;;;8.25;7.45;;;10.80;99.90;;;;;;4905421;29;20053;-75
2022/06/01 02:23:23;;;;;;;8.90;8.05;;;11.00;99.90;;;;;;4922132;29;20063;-75
2022/06/01 02:25:50;;;;;;;9.60;8.60;;;10.90;99.90;;;;;;4874680;29;20148;-75
2022/06/01 02:28:16;;;;;;;11.32;9.00;;;10.90;99.90;;;;;;4890376;29;20114;-75
2022/06/01 02:30:44;;;;;;;9.32;8.43;;;10.90;99.90;;;;;;4922150;29;20507;-75
2022/06/01 02:33:15;;;;;;;11.35;9.35;;;10.90;99.90;;;;;;4913693;29;20052;-75
2022/06/01 02:35:44;;;;;;;10.73;9.70;;;11.00;99.90;;;;;;4906700;29;20048;-77
2022/06/01 02:38:18;;;;;;;13.38;10.98;;;11.00;99.90;;;;;;4911268;29;20048;-75
2022/06/01 02:40:44;;;;;;;16.25;14.55;;;11.00;99.90;;;;;;4895280;29;20472;-76
2022/06/01 02:43:09;;;;;;;15.88;14.18;;;11.10;99.90;;;;;;4920502;29;20133;-76
2022/06/01 02:45:35;;;;;;;16.27;13.55;;;11.20;99.90;;;;;;4904510;29;20056;-76
2022/06/01 02:48:02;;;;;;;19.40;14.55;;;11.30;99.90;;;;;;4921828;29;20048;-76
2022/06/01 02:50:34;;;;;;;17.38;13.82;;;11.30;99.90;;;;;;4919627;29;20191;-76
2022/06/01 02:53:00;;;;;;;15.73;13.45;;;11.40;99.90;;;;;;4902165;29;20048;-75
2022/06/01 02:55:28;;;;;;;15.52;12.60;;;11.50;99.90;;;;;;4904714;29;20079;-75
2022/06/01 02:57:55;;;;;;;14.50;12.93;;;11.60;99.90;;;;;;4919894;29;20052;-75
2022/06/01 03:00:28;;;;;;;14.32;12.02;;;11.60;99.90;;;;;;4904150;29;20059;-76
2022/06/01 03:02:59;;;;;;;13.35;11.95;;;11.70;99.90;;;;;;4896632;29;20171;-76
2022/06/01 03:05:33;;;;;;;13.07;9.85;;;11.80;99.90;;;;;;4894851;29;20055;-76
2022/06/01 03:07:59;;;;;;;10.95;6.90;;;11.90;99.90;;;;;;4887738;29;20390;-76
2022/06/01 03:10:26;;;;;;;11.25;5.60;;;11.90;99.90;;;;;;4921955;29;20090;-76
2022/06/01 03:12:56;;;;;;;8.35;5.75;;;12.00;99.90;;;;;;4893685;29;20195;-75
2022/06/01 03:15:23;;;;;;;12.05;5.50;;;12.00;99.90;;;;;;4902884;29;20258;-76
2022/06/01 03:17:49;;;;;;;6.93;3.90;;;12.00;99.90;;;;;;4911066;29;20107;-76
2022/06/01 03:20:18;;;;;;;9.25;3.50;;;11.90;99.90;;;;;;4927723;29;20407;-76
2022/06/01 03:22:44;;;;;;;8.50;3.90;;;11.90;99.90;;;;;;4909292;29;20052;-77
2022/06/01 03:25:16;;;;;;;5.47;3.10;;;11.80;99.90;;;;;;4910110;29;20118;-76
2022/06/01 03:27:42;;;;;;;7.05;2.90;;;12.10;99.90;;;;;;4911979;29;20055;-75
2022/06/01 03:30:11;;;;;;;7.68;3.90;;;11.80;99.90;;;;;;4903513;29;20052;-75
2022/06/01 03:32:37;;;;;;;8.80;3.30;;;11.70;99.90;;;;;;4911064;29;20060;-76
2022/06/01 03:35:05;;;;;;;8.18;3.50;;;11.70;99.90;;;;;;4902970;29;20049;-76
2022/06/01 03:37:31;;;;;;;10.52;3.42;;;11.70;99.90;;;;;;4905429;29;20093;-76
2022/06/01 03:39:57;;;;;;;10.52;4.30;;;11.70;99.90;;;;;;4919085;29;20106;-76
2022/06/01 03:42:23;;;;;;;6.68;3.70;;;11.70;99.90;;;;;;4903232;29;20052;-76
2022/06/01 03:47:33;;;;;;;8.50;3.47;;;11.70;99.90;;;;;;4896964;29;20060;-76
2022/06/01 03:49:58;;;;;;;6.68;3.10;;;11.70;99.90;;;;;;4903990;29;20044;-76
2022/06/01 03:52:25;;;;;;;9.35;3.40;;;11.60;99.90;;;;;;4920838;29;20054;-76
2022/06/01 03:54:51;;;;;;;10.80;3.58;;;11.60;99.90;;;;;;4918076;29;20060;-76
2022/06/01 03:57:17;;;;;;;9.38;3.33;;;11.60;99.90;;;;;;4903944;29;20107;-76
2022/06/01 03:59:43;;;;;;;8.65;3.67;;;11.60;99.90;;;;;;4888920;29;20061;-76
2022/06/01 04:02:09;;;;;;;6.72;3.00;;;11.60;99.90;;;;;;4904331;29;20068;-76
2022/06/01 04:04:36;;;;;;;6.95;2.63;;;11.60;99.90;;;;;;4886417;29;20048;-76
2022/06/01 04:07:02;;;;;;;7.13;2.30;;;11.60;99.90;;;;;;4902663;29;20052;-76
2022/06/01 04:09:29;;;;;;;5.07;2.47;;;11.60;99.90;;;;;;4919408;29;20055;-76
2022/06/01 04:11:55;;;;;;;4.47;2.35;;;11.50;99.90;;;;;;4903912;29;20094;-76
2022/06/01 04:14:21;;;;;;;4.45;2.50;;;11.50;99.90;;;;;;4902499;29;20447;-76
2022/06/01 04:16:47;;;;;;;4.57;2.40;;;11.50;99.90;;;;;;4904391;29;20056;-76
2022/06/01 04:19:13;;;;;;;4.07;2.28;;;11.50;99.90;;;;;;4909981;29;20084;-76
2022/06/01 04:21:43;;;;;;;5.43;2.95;;;11.50;99.90;;;;;;4903031;29;20048;-76
2022/06/01 04:24:13;;;;;;;4.68;3.10;;;11.50;99.90;;;;;;4901559;29;20045;-76
2022/06/01 04:26:40;;;;;;;5.72;2.88;;;11.50;99.90;;;;;;4902084;29;20054;-76
2022/06/01 04:29:05;;;;;;;7.47;2.97;;;11.50;99.90;;;;;;4903236;29;20104;-75
2022/06/01 04:31:31;;;;;;;5.78;3.15;;;11.60;99.90;;;;;;4894526;29;20048;-76
2022/06/01 04:33:57;;;;;;;4.28;3.28;;;11.60;99.90;;;;;;4903413;29;20498;-76
2022/06/01 04:36:23;;;;;;;5.20;2.67;;;10.60;99.90;;;;;;4908401;29;20048;-76
2022/06/01 04:38:49;;;;;;;4.75;3.25;;;11.70;99.90;;;;;;4887030;29;20056;-76
2022/06/01 04:41:14;;;;;;;4.68;2.50;;;11.70;99.90;;;;;;4908129;29;20108;-75
2022/06/01 04:43:40;;;;;;;4.32;2.85;;;11.70;99.90;;;;;;4910362;29;20079;-75
2022/06/01 04:46:06;;;;;;;6.25;3.50;;;11.80;99.90;;;;;;4919651;29;20060;-75
2022/06/01 04:48:31;;;;;;;5.50;2.92;;;11.80;99.90;;;;;;4903001;29;20127;-75
2022/06/01 04:50:58;;;;;;;4.53;2.90;;;11.80;99.90;;;;;;4919590;29;20051;-75
2022/06/01 04:53:25;;;;;;;7.30;3.55;;;11.80;99.90;;;;;;4910707;29;20059;-75
2022/06/01 04:55:51;;;;;;;5.72;3.30;;;11.80;99.90;;;;;;4916998;29;20056;-76
2022/06/01 04:58:16;;;;;;;7.07;3.72;;;11.80;99.90;;;;;;4917694;29;20710;-75
2022/06/01 05:00:44;;;;;;;5.65;3.55;;;11.80;99.90;;;;;;4925545;29;20143;-75
2022/06/01 05:03:11;;;;;;;6.32;3.47;;;11.80;99.90;;;;;;4910011;29;20514;-75
2022/06/01 05:05:39;;;;;;;5.93;3.40;;;11.90;99.90;;;;;;4903947;29;20135;-76
2022/06/01 05:08:06;;;;;;;5.00;3.42;;;11.90;99.90;;;;;;4892726;29;20507;-77
2022/06/01 05:10:32;;;;;;;5.68;3.63;;;11.90;99.90;;;;;;4887833;29;20058;-76
2022/06/01 05:12:58;;;;;;;4.95;3.60;;;11.90;99.90;;;;;;4902756;29;20044;-76
2022/06/01 05:15:24;;;;;;;3.40;3.08;;;12.00;99.90;;;;;;4909809;29;20052;-76
2022/06/01 05:17:50;;;;;;;7.30;3.78;;;12.00;99.90;;;;;;4909561;29;20814;-77
2022/06/01 05:20:16;;;;;;;6.20;3.67;;;12.10;99.90;;;;;;4889652;29;20495;-76
2022/06/01 05:22:42;;;;;;;5.30;3.20;;;12.10;99.90;;;;;;4909320;29;20063;-77
2022/06/01 05:25:08;;;;;;;5.85;3.65;;;12.10;99.90;;;;;;4917375;29;20044;-77
2022/06/01 05:27:34;;;;;;;4.95;3.70;;;12.10;99.90;;;;;;4902943;29;20090;-77
2022/06/01 05:30:01;;;;;;;6.35;3.22;;;12.20;99.90;;;;;;4908836;29;20049;-76
2022/06/01 05:32:27;;;;;;;8.70;3.65;;;12.20;99.90;;;;;;4918654;29;20114;-76
2022/06/01 05:34:53;;;;;;;7.10;3.50;;;12.20;99.90;;;;;;4897520;29;20048;-78
2022/06/01 05:37:19;;;;;;;6.95;3.88;;;12.10;99.90;;;;;;4906603;29;20155;-77
2022/06/01 05:39:45;;;;;;;6.80;3.75;;;12.10;99.90;;;;;;4899562;29;20044;-77
2022/06/01 05:42:11;;;;;;;9.32;4.40;;;12.10;99.90;;;;;;4909838;29;20086;-76
2022/06/01 05:44:37;;;;;;;6.18;3.70;;;12.10;99.90;;;;;;4921661;29;20044;-76
2022/06/01 05:47:04;;;;;;;4.55;3.60;;;12.10;99.90;;;;;;4906823;29;20132;-76
2022/06/01 05:49:30;;;;;;;5.05;3.38;;;12.10;99.90;;;;;;4913472;29;20048;-76
2022/06/01 05:51:56;;;;;;;4.60;3.50;;;12.10;99.90;;;;;;4906177;29;20398;-76
2022/06/01 05:54:22;;;;;;;5.85;3.30;;;12.10;99.90;;;;;;4915135;29;20095;-76
2022/06/01 05:56:48;;;;;;;7.47;4.28;;;12.10;99.90;;;;;;4910152;29;20052;-76
2022/06/01 05:59:15;;;;;;;6.13;4.32;;;12.10;99.90;;;;;;4909233;29;20571;-76
2022/06/01 06:01:41;;;;;;;5.82;4.65;;;12.10;99.90;;;;;;4904369;29;20060;-76
2022/06/01 06:04:07;;;;;;;6.82;4.20;;;12.00;99.90;;;;;;4911508;29;20131;-76
2022/06/01 06:06:33;;;;;;;7.80;4.28;;;12.00;99.90;;;;;;4909968;29;20048;-76
2022/06/01 06:09:02;;;;;;;7.40;4.40;;;11.90;99.90;;;;;;4904328;29;20044;-77
2022/06/01 06:11:30;;;;;;;5.10;3.70;;;11.90;99.90;;;;;;4917495;29;20120;-77
2022/06/01 06:13:58;;;;;;;5.35;4.25;;;11.90;99.90;;;;;;4902463;29;20047;-76
2022/06/01 06:16:25;;;;;;;6.15;4.57;;;11.90;99.90;;;;;;4903039;29;20141;-75
2022/06/01 06:18:55;;;;;;;5.65;4.53;;;12.00;99.90;;;;;;4904223;29;20052;-75
2022/06/01 06:21:22;;;;;;;7.32;4.50;;;12.10;99.90;;;;;;4909267;29;20505;-74
2022/06/01 06:23:48;;;;;;;5.03;3.60;;;12.20;99.90;;;;;;4911145;29;20071;-75
2022/06/01 06:26:13;;;;;;;5.38;3.35;;;12.20;99.90;;;;;;4919307;29;20654;-75
2022/06/01 06:28:39;;;;;;;4.47;3.25;;;12.20;99.90;;;;;;4907731;29;20044;-76
2022/06/01 06:31:05;;;;;;;4.95;2.85;;;12.20;99.90;;;;;;4904579;29;20048;-77
2022/06/01 06:33:31;;;;;;;8.27;3.22;;;12.30;99.90;;;;;;4921244;29;20470;-77
2022/06/01 06:36:03;;;;;;;3.85;3.05;;;12.30;99.90;;;;;;4919717;29;20560;-77
2022/06/01 06:38:30;;;;;;;5.25;3.10;;;12.30;99.90;;;;;;4905612;29;20051;-76
2022/06/01 06:40:58;;;;;;;4.88;2.97;;;12.40;99.90;;;;;;4904434;29;20554;-79
2022/06/01 06:43:25;;;;;;;5.30;3.30;;;12.40;99.90;;;;;;4920769;29;20087;-79
2022/06/01 06:45:56;;;;;;;5.38;3.22;;;12.40;99.90;;;;;;4896596;29;20079;-79
2022/06/01 06:48:22;;;;;;;5.65;3.33;;;12.40;99.90;;;;;;4887756;29;20056;-79
2022/06/01 06:50:48;;;;;;;5.55;2.95;;;12.40;99.90;;;;;;4911848;29;20059;-79
2022/06/01 06:53:14;;;;;;;4.97;3.28;;;12.40;99.90;;;;;;4920635;29;20045;-78
2022/06/01 06:55:39;;;;;;;5.40;3.10;;;12.50;99.90;;;;;;4895631;29;20068;-79
2022/06/01 06:58:09;;;;;;;4.22;3.03;;;12.60;99.90;;;;;;4920529;29;20137;-83
2022/06/01 07:00:36;;;;;;;6.72;2.95;;;12.70;99.90;;;;;;4903781;29;20143;-76
2022/06/01 07:03:02;;;;;;;4.78;2.90;;;12.80;99.90;;;;;;4919250;29;20064;-76
2022/06/01 07:08:12;;;;;;;4.55;2.92;;;13.00;99.90;;;;;;4911842;29;20088;-75
2022/06/01 07:10:38;;;;;;;5.30;2.90;;;13.20;99.90;;;;;;4904924;29;20071;-76
2022/06/01 07:13:04;;;;;;;6.78;3.00;;;13.30;99.90;;;;;;4893700;29;20120;-76
2022/06/01 07:15:30;;;;;;;3.90;2.40;;;13.40;99.90;;;;;;4911405;29;20104;-75
2022/06/01 07:17:55;;;;;;;3.50;2.60;;;13.60;99.90;;;;;;4912216;29;20569;-75
2022/06/01 07:20:21;;;;;;;4.00;2.60;;;13.70;99.90;;;;;;4910420;29;20104;-75
2022/06/01 07:22:47;;;;;;;3.40;2.22;;;13.60;99.90;;;;;;4872846;29;20067;-75
2022/06/01 07:25:13;;;;;;;4.25;2.50;;;13.60;99.90;;;;;;4910015;29;20048;-75
2022/06/01 07:27:39;;;;;;;4.32;2.45;;;13.70;99.90;;;;;;4921739;29;20052;-75
2022/06/01 07:30:07;;;;;;;4.50;2.47;;;13.70;99.90;;;;;;4910740;29;20052;-75
2022/06/01 07:32:33;;;;;;;3.88;2.50;;;13.70;99.90;;;;;;4920122;29;20140;-76
2022/06/01 07:34:59;;;;;;;2.80;2.20;;;13.70;99.90;;;;;;4908729;29;20586;-76
2022/06/01 07:43:06;;;;;;;3.88;2.65;;;13.80;99.90;;;;;;4916659;29;20977;-75
2022/06/01 07:45:34;;;;;;;4.85;2.85;;;14.10;99.90;;;;;;4918691;29;20048;-77
2022/06/01 07:48:02;;;;;;;4.30;2.80;;;14.40;99.90;;;;;;4887677;29;20059;-76
2022/06/01 07:50:27;;;;;;;4.22;2.95;;;14.70;99.90;;;;;;4903333;29;20092;-76
2022/06/01 07:52:53;;;;;;;4.00;2.67;;;14.90;99.90;;;;;;4903496;29;20088;-76
2022/06/01 07:55:19;;;;;;;6.00;3.17;;;15.00;99.90;;;;;;4870266;29;20077;-76
2022/06/01 07:57:44;;;;;;;3.53;2.75;;;15.10;99.90;;;;;;4904048;29;20384;-75
2022/06/01 08:00:11;;;;;;;4.10;2.97;;;15.00;99.90;;;;;;4872574;29;20103;-76
2022/06/01 08:02:38;;;;;;;3.30;2.97;;;15.10;99.90;;;;;;4910046;29;20094;-75
2022/06/01 08:05:05;;;;;;;3.47;2.47;;;15.20;99.90;;;;;;4902350;29;20059;-75
2022/06/01 08:07:31;;;;;;;4.00;2.70;;;15.40;99.90;;;;;;4887760;29;20127;-75
2022/06/01 08:09:57;;;;;;;4.32;2.75;;;15.50;99.90;;;;;;4872318;29;20056;-75
2022/06/01 08:15:08;;;;;;;3.85;2.40;;;15.80;99.90;;;;;;4902400;29;20142;-76
2022/06/01 08:17:34;;;;;;;4.82;2.40;;;15.90;99.90;;;;;;4886546;29;20056;-75
2022/06/01 08:19:59;;;;;;;3.95;2.38;;;16.10;99.90;;;;;;4918885;29;20044;-75
2022/06/01 08:22:25;;;;;;;4.10;2.00;;;16.30;99.90;;;;;;4894163;29;20443;-75
2022/06/01 08:24:51;;;;;;;2.90;1.60;;;16.30;99.90;;;;;;4872343;29;20573;-75
2022/06/01 08:27:16;;;;;;;2.47;1.20;;;16.20;99.90;;;;;;4909540;29;20387;-76
2022/06/01 08:29:42;;;;;;;3.88;1.45;;;16.20;99.90;;;;;;4902502;29;20053;-75
2022/06/01 08:32:08;;;;;;;4.40;1.40;;;16.10;99.90;;;;;;4903642;29;20052;-75
2022/06/01 08:34:35;;;;;;;1.55;1.20;;;16.20;99.90;;;;;;4902539;29;20521;-75
2022/06/01 08:37:01;;;;;;;1.73;1.08;;;16.10;99.90;;;;;;4918912;29;20487;-76
2022/06/01 08:39:27;;;;;;;2.40;1.20;;;16.10;99.90;;;;;;4871971;29;20059;-76
2022/06/01 08:41:53;;;;;;;1.80;1.20;;;16.10;99.90;;;;;;4917745;29;20063;-76
2022/06/01 08:44:40;;;;;;;3.13;1.13;;;16.20;99.90;;;;;;4902023;29;20494;-80
2022/06/01 08:47:09;;;;;;;2.75;1.30;;;16.60;99.90;;;;;;4920150;29;20076;-78
2022/06/01 08:49:36;;;;;;;1.88;1.13;;;16.80;99.90;;;;;;4892872;29;20054;-78
2022/06/01 08:52:04;;;;;;;2.85;1.10;;;17.10;99.90;;;;;;4887808;29;20506;-77
2022/06/01 08:54:31;;;;;;;2.75;1.30;;;17.40;99.90;;;;;;4917349;29;20502;-77
2022/06/01 08:57:29;;;;;;;3.20;1.30;;;17.80;99.90;;;;;;4901962;29;20262;-77
2022/06/01 09:00:15;;;;;;;3.42;1.30;;;18.00;99.90;;;;;;4904560;29;20060;-77
2022/06/01 09:03:07;;;;;;;2.30;1.20;;;17.80;99.90;;;;;;4904249;29;20058;-77
2022/06/01 09:05:45;;;;;;;2.85;1.25;;;17.70;99.90;;;;;;4886474;29;21049;-78
2022/06/01 09:08:38;;;;;;;2.45;1.30;;;17.60;99.90;;;;;;4913448;29;20040;-78
2022/06/01 09:11:10;;;;;;;5.85;1.73;;;17.60;99.90;;;;;;4906054;29;20052;-78
2022/06/01 09:13:52;;;;;;;2.13;1.40;;;17.50;99.90;;;;;;4907592;29;20045;-78
2022/06/01 09:16:29;;;;;;;4.05;1.40;;;17.30;99.90;;;;;;4907695;29;20112;-78
2022/06/01 09:18:56;;;;;;;3.75;1.80;;;17.20;99.90;;;;;;4908765;29;20052;-78
2022/06/01 09:24:34;;;;;;;3.33;1.50;;;17.30;99.90;;;;;;4913472;29;20052;-78
2022/06/01 09:27:10;;;;;;;3.00;1.38;;;17.10;99.90;;;;;;4923963;29;20134;-78
2022/06/01 09:29:45;;;;;;;2.08;1.17;;;17.00;99.90;;;;;;4906466;29;20056;-78
2022/06/01 09:32:27;;;;;;;2.25;1.20;;;16.90;99.90;;;;;;4890758;29;20047;-78
2022/06/01 09:34:54;;;;;;;3.17;1.20;;;16.80;99.90;;;;;;4912449;29;20050;-78
2022/06/01 09:37:22;;;;;;;3.53;1.08;;;16.80;99.90;;;;;;4894119;29;20044;-78
2022/06/01 09:40:00;;;;;;;1.95;1.23;;;16.80;99.90;;;;;;4889828;29;20394;-80
2022/06/01 09:42:26;;;;;;;2.13;1.00;;;16.80;99.90;;;;;;4923514;29;20052;-79
2022/06/01 09:44:57;;;;;;;3.05;1.10;;;16.60;99.90;;;;;;4912831;29;20052;-81
2022/06/01 09:47:35;;;;;;;3.22;1.00;;;16.60;99.90;;;;;;4906086;29;20040;-79
2022/06/01 09:50:03;;;;;;;1.55;0.90;;;16.60;99.90;;;;;;4911374;29;20095;-76
2022/06/01 09:52:40;;;;;;;2.72;1.17;;;16.60;99.90;;;;;;4902472;29;20067;-76
2022/06/01 09:55:12;;;;;;;1.17;0.93;;;16.90;99.90;;;;;;4917142;29;20414;-76
2022/06/01 09:57:38;;;;;;;1.90;1.05;;;17.40;99.90;;;;;;4906927;29;20056;-76
2022/06/01 10:06:25;;;;;;;1.35;0.80;;;18.60;99.90;;;;;;4904008;29;20052;-76
2022/06/01 10:09:13;;;;;;;1.05;0.70;;;19.10;99.90;;;;;;4887658;29;20051;-76
2022/06/01 10:11:46;;;;;;;1.63;0.95;;;19.60;99.90;;;;;;4883536;29;20227;-75
2022/06/01 10:14:43;;;;;;;2.40;0.90;;;19.90;99.90;;;;;;4902924;29;20051;-76
2022/06/01 10:17:18;;;;;;;1.42;0.75;;;19.90;99.90;;;;;;4914980;29;20078;-75
2022/06/01 10:19:54;;;;;;;1.20;0.77;;;19.60;99.90;;;;;;4905364;29;20103;-75
2022/06/01 10:22:33;;;;;;;1.65;0.90;;;19.30;99.90;;;;;;4902349;29;20322;-75
2022/06/01 10:25:31;;;;;;;1.90;0.90;;;19.00;99.90;;;;;;4908983;29;20102;-76
2022/06/01 10:28:16;;;;;;;1.67;0.90;;;18.50;99.90;;;;;;4905506;29;20055;-74
2022/06/01 10:30:49;;;;;;;1.45;0.70;;;18.30;99.90;;;;;;4908043;29;20918;-75
2022/06/01 10:33:38;;;;;;;1.20;0.68;;;18.10;99.90;;;;;;4906648;29;20044;-75
2022/06/01 10:36:26;;;;;;;2.65;0.70;;;18.00;99.90;;;;;;4907675;29;20112;-79
2022/06/01 10:39:00;;;;;;;2.45;0.80;;;17.70;99.90;;;;;;4904021;29;20100;-77
2022/06/01 10:41:34;;;;;;;1.60;0.85;;;17.40;99.90;;;;;;4911656;29;20612;-78
2022/06/01 10:44:12;;;;;;;2.65;0.85;;;17.30;99.90;;;;;;4907568;29;20565;-75
2022/06/01 10:47:05;;;;;;;1.52;0.82;;;17.20;99.90;;;;;;4917506;29;20056;-74
2022/06/01 10:49:46;;;;;;;1.58;0.77;;;17.10;99.90;;;;;;4910057;29;20051;-75
2022/06/01 10:52:21;;;;;;;2.17;0.90;;;17.00;99.90;;;;;;4920932;29;20060;-75
2022/06/01 10:54:59;;;;;;;2.28;0.70;;;16.80;99.90;;;;;;4910686;29;20053;-74
2022/06/01 10:57:26;;;;;;;2.40;0.75;;;16.50;99.90;;;;;;4892488;29;20102;-75
2022/06/01 10:59:51;;;;;;;1.02;0.52;;;16.10;99.90;;;;;;4904733;29;20048;-75
2022/06/01 11:02:46;;;;;;;2.22;0.80;;;15.80;99.90;;;;;;4904410;29;20120;-75
2022/06/01 11:05:31;;;;;;;1.75;0.80;;;15.50;99.90;;;;;;4906087;29;20056;-75
2022/06/01 11:08:15;;;;;;;3.87;0.73;;;15.40;99.90;;;;;;4901859;29;20075;-74
2022/06/01 11:10:56;;;;;;;1.58;0.88;;;15.30;99.90;;;;;;4906886;29;20127;-75
2022/06/01 11:13:49;;;;;;;3.38;0.90;;;15.10;99.90;;;;;;4907780;29;20056;-75
2022/06/01 11:16:40;;;;;;;1.95;1.08;;;15.00;99.90;;;;;;4904168;29;20112;-75
2022/06/01 11:19:38;;;;;;;3.30;1.38;;;14.90;99.90;;;;;;4886997;29;20049;-75
2022/06/01 11:22:10;;;;;;;1.65;1.20;;;14.80;99.90;;;;;;4904541;29;20048;-74
2022/06/01 11:25:19;;;;;;;2.75;1.48;;;14.80;99.90;;;;;;4902725;29;20048;-82
2022/06/01 11:28:27;;;;;;;2.38;1.52;;;15.00;99.90;;;;;;4903081;29;20601;-78
2022/06/01 11:31:14;;;;;;;2.17;1.20;;;15.10;99.90;;;;;;4904351;29;20056;-74
2022/06/01 11:33:52;;;;;;;1.63;1.10;;;15.20;99.90;;;;;;4899037;29;20989;-76
2022/06/01 11:36:31;;;;;;;2.30;1.40;;;15.60;99.90;;;;;;4909787;29;20103;-76
2022/06/01 11:39:15;;;;;;;2.22;1.13;;;16.20;99.90;;;;;;4903426;29;20052;-76
2022/06/01 11:41:50;;;;;;;1.80;1.15;;;16.80;99.90;;;;;;4907682;29;20047;-76
2022/06/01 11:44:28;;;;;;;1.88;1.23;;;17.30;99.90;;;;;;4906653;29;20151;-76
2022/06/01 11:47:18;;;;;;;1.35;0.82;;;17.80;99.90;;;;;;4890541;29;20390;-76
2022/06/01 11:50:00;;;;;;;1.30;0.90;;;18.10;99.90;;;;;;4918253;29;20052;-77
2022/06/01 11:52:31;;;;;;;2.28;1.05;;;18.50;99.90;;;;;;4906483;29;20123;-77
2022/06/01 11:55:29;;;;;;;1.75;1.15;;;18.80;99.90;;;;;;4905906;29;20100;-77
2022/06/01 11:58:19;;;;;;;1.85;1.10;;;19.40;99.90;;;;;;4900048;29;20059;-77
2022/06/01 12:00:48;;;;;;;1.50;1.00;;;19.70;99.90;;;;;;4891445;29;20052;-75
2022/06/01 12:03:20;;;;;;;1.55;0.70;;;20.00;99.90;;;;;;4919793;29;20040;-76
2022/06/01 12:06:13;;;;;;;1.65;1.02;;;20.20;99.90;;;;;;4918239;29;20056;-79
2022/06/01 12:08:50;;;;;;;1.67;0.90;;;20.40;99.90;;;;;;4903615;29;20052;-78
2022/06/01 12:11:41;;;;;;;1.25;0.88;;;20.80;99.90;;;;;;4903216;29;20059;-77
2022/06/01 12:14:22;;;;;;;1.85;0.75;;;21.10;99.90;;;;;;4908839;29;20052;-79
2022/06/01 12:17:17;;;;;;;3.42;0.77;;;21.00;99.90;;;;;;4901483;29;20135;-78
2022/06/01 12:19:45;;;;;;;1.50;0.93;;;20.90;99.90;;;;;;4904145;29;20075;-81
2022/06/01 12:28:31;;;;;;;2.17;0.90;;;20.90;99.90;;;;;;4900982;29;20075;-75
2022/06/01 12:31:20;;;;;;;2.08;0.90;;;20.90;99.90;;;;;;4915023;29;20063;-75
2022/06/01 12:34:04;;;;;;;3.67;1.02;;;21.00;99.90;;;;;;4904297;29;20461;-76
2022/06/01 12:36:53;;;;;;;2.17;1.08;;;21.20;99.90;;;;;;4920214;29;20490;-76
2022/06/01 12:39:31;;;;;;;1.75;0.90;;;21.30;99.90;;;;;;4904719;29;20079;-76
2022/06/01 12:42:26;;;;;;;2.20;0.90;;;21.60;99.90;;;;;;4886589;29;20054;-76
2022/06/01 12:44:53;;;;;;;1.77;1.00;;;21.70;99.90;;;;;;4899764;29;20548;-75
2022/06/01 12:47:32;;;;;;;3.35;1.40;;;21.60;99.90;;;;;;4915377;29;20062;-75
2022/06/01 12:50:18;;;;;;;1.90;1.10;;;21.40;99.90;;;;;;4901433;29;20112;-75
2022/06/01 12:52:44;;;;;;;2.42;1.20;;;20.90;99.90;;;;;;4900339;29;20064;-75
2022/06/01 12:55:20;;;;;;;3.35;1.17;;;20.60;99.90;;;;;;4899330;29;20059;-76
2022/06/01 12:57:55;;;;;;;2.17;1.05;;;20.20;99.90;;;;;;4918185;29;20052;-76
2022/06/01 13:00:32;;;;;;;2.35;1.10;;;19.80;99.90;;;;;;4907581;29;20066;-76
2022/06/01 13:02:58;;;;;;;2.95;1.15;;;19.30;99.90;;;;;;4899623;29;20056;-76
2022/06/01 13:05:26;;;;;;;2.45;1.00;;;19.00;99.90;;;;;;4900412;29;20390;-76
2022/06/01 13:07:58;;;;;;;1.33;1.08;;;18.70;99.90;;;;;;4913944;29;20060;-76
2022/06/01 13:10:35;;;;;;;1.75;1.00;;;18.50;99.90;;;;;;4916637;29;20751;-75
2022/06/01 13:13:08;;;;;;;3.20;1.30;;;18.30;99.90;;;;;;4905857;29;20408;-76
2022/06/01 13:15:35;;;;;;;2.20;1.30;;;17.90;99.90;;;;;;4905916;29;20052;-75
2022/06/01 13:18:04;;;;;;;1.80;1.13;;;17.70;99.90;;;;;;4899132;29;20063;-75
2022/06/01 13:20:48;;;;;;;2.83;1.30;;;17.50;99.90;;;;;;4906258;29;20045;-75
2022/06/01 13:23:17;;;;;;;3.08;1.58;;;17.20;99.90;;;;;;4901172;29;20044;-75
2022/06/01 13:25:43;;;;;;;3.13;1.30;;;16.90;99.90;;;;;;4900360;29;20060;-75
2022/06/01 13:28:11;;;;;;;2.65;1.30;;;16.90;99.90;;;;;;4900984;29;20151;-75
2022/06/01 13:30:39;;;;;;;1.90;1.30;;;16.90;99.90;;;;;;4900500;29;20055;-75
2022/06/01 13:33:23;;;;;;;3.13;1.40;;;16.80;99.90;;;;;;4900641;29;20048;-74
2022/06/01 13:36:02;;;;;;;2.17;1.20;;;16.80;99.90;;;;;;4909125;29;20056;-75
2022/06/01 13:38:44;;;;;;;1.92;1.10;;;16.80;99.90;;;;;;4908856;29;20056;-75
2022/06/01 13:41:37;;;;;;;3.38;1.40;;;16.90;99.90;;;;;;4887097;29;20149;-75
2022/06/01 13:44:09;;;;;;;3.17;1.50;;;16.90;99.90;;;;;;4903909;29;20139;-75